createdAt,value
2019-01-12T00:01:21.476Z,6.70
2019-01-12T00:03:50.810Z,6.70
2019-01-12T00:06:20.163Z,6.70
2019-01-12T00:08:49.604Z,6.70
2019-01-12T00:11:18.960Z,6.60
2019-01-12T00:13:48.427Z,6.60
2019-01-12T00:16:19.551Z,6.70
2019-01-12T00:18:48.927Z,6.80
2019-01-12T00:21:18.346Z,6.90
2019-01-12T00:23:47.714Z,6.90
2019-01-12T00:26:17.126Z,6.90
2019-01-12T00:28:46.458Z,6.90
2019-01-12T00:31:16.088Z,6.90
2019-01-12T00:33:45.463Z,6.90
2019-01-12T00:36:14.860Z,6.90
2019-01-12T00:38:44.376Z,6.90
2019-01-12T00:41:13.883Z,6.90
2019-01-12T00:43:43.316Z,6.90
2019-01-12T00:46:12.748Z,6.90
2019-01-12T00:48:42.123Z,6.90
2019-01-12T00:51:11.484Z,6.90
2019-01-12T00:53:40.869Z,6.90
2019-01-12T00:56:10.370Z,6.90
2019-01-12T00:58:39.725Z,6.90
2019-01-12T01:01:09.202Z,6.80
2019-01-12T01:03:38.570Z,6.80
2019-01-12T01:06:07.958Z,6.80
2019-01-12T01:08:37.295Z,6.70
2019-01-12T01:11:06.740Z,6.60
2019-01-12T01:13:36.093Z,6.50
2019-01-12T01:16:05.515Z,6.50
2019-01-12T01:18:34.894Z,6.50
2019-01-12T01:21:04.325Z,6.50
2019-01-12T01:23:33.759Z,6.50
2019-01-12T01:26:03.124Z,6.50
2019-01-12T01:28:32.558Z,6.50
2019-01-12T01:31:01.924Z,6.60
2019-01-12T01:33:31.282Z,6.60
2019-01-12T01:36:00.647Z,6.60
2019-01-12T01:38:30.005Z,6.60
2019-01-12T01:40:59.457Z,6.60
2019-01-12T01:43:28.795Z,6.60
2019-01-12T01:45:58.178Z,6.60
2019-01-12T01:48:27.523Z,6.70
2019-01-12T01:50:56.897Z,6.70
2019-01-12T01:53:26.242Z,6.70
2019-01-12T01:55:55.599Z,6.70
2019-01-12T01:58:25.029Z,6.70
2019-01-12T02:00:54.443Z,6.70
2019-01-12T02:03:23.805Z,6.70
2019-01-12T02:05:53.188Z,6.70
2019-01-12T02:08:22.638Z,6.70
2019-01-12T02:10:52.065Z,6.70
2019-01-12T02:13:21.448Z,6.70
2019-01-12T02:15:50.878Z,6.80
2019-01-12T02:18:20.255Z,6.80
2019-01-12T02:20:49.687Z,6.80
2019-01-12T02:23:19.116Z,6.80
2019-01-12T02:25:51.203Z,6.80
2019-01-12T02:28:19.547Z,6.80
2019-01-12T02:30:48.911Z,6.80
2019-01-12T02:33:18.268Z,6.70
2019-01-12T02:35:47.610Z,6.70
2019-01-12T02:38:16.985Z,6.70
2019-01-12T02:40:46.391Z,6.60
2019-01-12T02:43:15.761Z,6.60
2019-01-12T02:45:45.133Z,6.60
2019-01-12T02:48:14.432Z,6.60
2019-01-12T02:50:43.699Z,6.60
2019-01-12T02:53:13.080Z,6.60
2019-01-12T02:55:42.428Z,6.60
2019-01-12T02:58:11.832Z,6.60
2019-01-12T03:00:41.125Z,6.70
2019-01-12T03:03:10.479Z,6.70
2019-01-12T03:05:39.769Z,6.70
2019-01-12T03:08:09.122Z,6.70
2019-01-12T03:10:38.499Z,6.80
2019-01-12T03:13:07.858Z,6.80
2019-01-12T03:15:37.242Z,6.80
2019-01-12T03:18:06.680Z,6.80
2019-01-12T03:20:36.077Z,6.80
2019-01-12T03:23:05.515Z,6.80
2019-01-12T03:25:34.967Z,6.80
2019-01-12T03:28:04.490Z,6.80
2019-01-12T03:30:36.297Z,6.80
2019-01-12T03:33:04.907Z,6.80
2019-01-12T03:35:34.272Z,6.70
2019-01-12T03:38:03.710Z,6.70
2019-01-12T03:40:33.068Z,6.70
2019-01-12T03:43:02.463Z,6.80
2019-01-12T03:45:31.835Z,6.80
2019-01-12T03:48:01.188Z,6.80
2019-01-12T03:50:30.558Z,6.70
2019-01-12T03:52:59.912Z,6.70
2019-01-12T03:55:29.284Z,6.60
2019-01-12T03:57:58.645Z,6.60
2019-01-12T04:00:28.176Z,6.60
2019-01-12T04:02:59.177Z,6.60
2019-01-12T04:05:28.519Z,6.60
2019-01-12T04:07:57.903Z,6.60
2019-01-12T04:10:27.257Z,6.60
2019-01-12T04:12:56.697Z,6.60
2019-01-12T04:15:26.056Z,6.60
2019-01-12T04:17:55.724Z,6.50
2019-01-12T04:20:25.092Z,6.50
2019-01-12T04:22:54.540Z,6.40
2019-01-12T04:25:23.911Z,6.40
2019-01-12T04:27:53.267Z,6.40
2019-01-12T04:30:22.731Z,6.40
2019-01-12T04:32:52.081Z,6.40
2019-01-12T04:35:21.460Z,6.40
2019-01-12T04:37:50.815Z,6.30
2019-01-12T04:40:20.340Z,6.30
2019-01-12T04:42:49.713Z,6.30
2019-01-12T04:45:19.159Z,6.30
2019-01-12T04:47:48.627Z,6.20
2019-01-12T04:50:18.207Z,6.10
2019-01-12T04:52:47.574Z,6.00
2019-01-12T04:55:17.231Z,6.00
2019-01-12T04:57:46.612Z,6.00
2019-01-12T05:00:16.800Z,5.90
2019-01-12T05:02:46.183Z,6.00
2019-01-12T05:05:15.660Z,5.90
2019-01-12T05:07:45.093Z,6.00
2019-01-12T05:10:14.909Z,6.00
2019-01-12T05:12:44.814Z,6.00
2019-01-12T05:15:15.031Z,6.00
2019-01-12T05:17:44.387Z,5.90
2019-01-12T05:20:18.512Z,5.90
2019-01-12T05:22:48.203Z,5.80
2019-01-12T05:25:17.592Z,5.80
2019-01-12T05:27:47.075Z,5.80
2019-01-12T05:30:18.500Z,5.80
2019-01-12T05:32:47.996Z,5.80
2019-01-12T05:35:17.419Z,5.80
2019-01-12T05:37:46.803Z,5.80
2019-01-12T05:40:16.375Z,5.80
2019-01-12T05:42:45.804Z,5.80
2019-01-12T05:45:15.286Z,5.70
2019-01-12T05:47:44.669Z,5.70
2019-01-12T05:50:14.084Z,5.70
2019-01-12T05:52:43.685Z,5.60
2019-01-12T05:55:13.194Z,5.70
2019-01-12T05:57:42.564Z,5.70
2019-01-12T06:00:15.140Z,5.70
2019-01-12T06:02:44.507Z,5.60
2019-01-12T06:05:13.880Z,5.60
2019-01-12T06:07:43.331Z,5.60
2019-01-12T06:10:14.756Z,5.60
2019-01-12T06:12:44.287Z,5.70
2019-01-12T06:15:14.406Z,5.70
2019-01-12T06:17:43.899Z,5.80
2019-01-12T06:20:14.904Z,5.80
2019-01-12T06:22:44.321Z,5.80
2019-01-12T06:25:13.749Z,5.80
2019-01-12T06:27:43.117Z,5.90
2019-01-12T06:30:15.394Z,5.90
2019-01-12T06:32:44.756Z,6.00
2019-01-12T06:35:14.582Z,6.00
2019-01-12T06:37:44.019Z,6.00
2019-01-12T06:40:15.432Z,6.10
2019-01-12T06:42:44.860Z,6.10
2019-01-12T06:45:16.254Z,6.10
2019-01-12T06:47:45.628Z,6.20
2019-01-12T06:50:18.007Z,6.20
2019-01-12T06:52:47.385Z,6.20
2019-01-12T06:55:16.792Z,6.20
2019-01-12T06:57:46.168Z,6.20
2019-01-12T07:00:18.041Z,6.20
2019-01-12T07:02:47.663Z,6.20
2019-01-12T07:05:18.902Z,6.20
2019-01-12T07:07:48.313Z,6.20
2019-01-12T07:10:17.759Z,6.20
2019-01-12T07:12:47.124Z,6.20
2019-01-12T07:15:16.541Z,6.20
2019-01-12T07:17:45.914Z,6.20
2019-01-12T07:20:16.225Z,6.20
2019-01-12T07:22:46.411Z,6.20
2019-01-12T07:25:17.502Z,6.20
2019-01-12T07:27:46.873Z,6.20
2019-01-12T07:30:18.858Z,6.20
2019-01-12T07:32:48.370Z,6.20
2019-01-12T07:35:17.757Z,6.20
2019-01-12T07:37:47.118Z,6.30
2019-01-12T07:40:16.686Z,6.30
2019-01-12T07:42:46.190Z,6.30
2019-01-12T07:45:15.573Z,6.30
2019-01-12T07:47:45.058Z,6.30
2019-01-12T07:50:14.965Z,6.30
2019-01-12T07:52:44.318Z,6.30
2019-01-12T07:55:13.830Z,6.40
2019-01-12T07:57:43.178Z,6.40
2019-01-12T08:00:15.628Z,6.50
2019-01-12T08:02:45.062Z,6.40
2019-01-12T08:05:15.265Z,6.40
2019-01-12T08:07:44.803Z,6.50
2019-01-12T08:10:19.880Z,6.50
2019-01-12T08:12:49.241Z,6.60
2019-01-12T08:15:18.766Z,6.60
2019-01-12T08:17:48.203Z,6.60
2019-01-12T08:20:17.551Z,6.70
2019-01-12T08:22:46.925Z,6.60
2019-01-12T08:25:16.266Z,6.60
2019-01-12T08:27:45.628Z,6.60
2019-01-12T08:30:16.937Z,6.70
2019-01-12T08:32:46.295Z,6.80
2019-01-12T08:35:15.803Z,6.80
2019-01-12T08:37:45.147Z,6.80
2019-01-12T08:40:14.647Z,6.80
2019-01-12T08:42:44.135Z,6.80
2019-01-12T08:45:13.649Z,6.80
2019-01-12T08:47:43.167Z,6.80
2019-01-12T08:50:15.379Z,6.80
2019-01-12T08:52:44.820Z,6.80
2019-01-12T08:55:14.267Z,6.80
2019-01-12T08:57:43.861Z,6.80
2019-01-12T09:00:16.219Z,6.80
2019-01-12T09:02:45.671Z,6.90
2019-01-12T09:05:15.124Z,7.00
2019-01-12T09:07:44.475Z,6.90
2019-01-12T09:10:16.471Z,6.90
2019-01-12T09:12:45.965Z,7.00
2019-01-12T09:15:15.530Z,7.00
2019-01-12T09:17:45.090Z,6.90
2019-01-12T09:20:15.961Z,6.70
2019-01-12T09:22:45.861Z,6.70
2019-01-12T09:25:15.588Z,6.70
2019-01-12T09:27:44.951Z,6.70
2019-01-12T09:30:16.856Z,6.70
2019-01-12T09:32:46.684Z,6.80
2019-01-12T09:35:16.176Z,6.80
2019-01-12T09:37:45.690Z,6.70
2019-01-12T09:40:16.801Z,6.80
2019-01-12T09:42:46.306Z,6.70
2019-01-12T09:45:17.288Z,6.70
2019-01-12T09:47:46.723Z,6.70
2019-01-12T09:50:19.719Z,6.70
2019-01-12T09:52:49.730Z,6.70
2019-01-12T09:55:19.088Z,6.70
2019-01-12T09:57:48.447Z,6.70
2019-01-12T10:00:20.159Z,6.80
2019-01-12T10:02:49.604Z,6.80
2019-01-12T10:05:19.098Z,6.80
2019-01-12T10:07:48.524Z,6.80
2019-01-12T10:10:20.527Z,6.80
2019-01-12T10:12:52.254Z,6.80
2019-01-12T10:15:21.711Z,6.70
2019-01-12T10:17:52.694Z,6.70
2019-01-12T10:20:22.146Z,6.60
2019-01-12T10:22:51.573Z,6.70
2019-01-12T10:25:20.927Z,6.70
2019-01-12T10:27:50.317Z,6.70
2019-01-12T10:30:21.848Z,6.80
2019-01-12T10:32:51.398Z,6.70
2019-01-12T10:35:20.742Z,6.60
2019-01-12T10:37:50.269Z,6.60
2019-01-12T10:40:19.985Z,6.60
2019-01-12T10:42:49.771Z,6.60
2019-01-12T10:45:21.464Z,6.60
2019-01-12T10:47:51.108Z,6.50
2019-01-12T10:50:25.879Z,6.50
2019-01-12T10:52:55.260Z,6.60
2019-01-12T10:55:24.635Z,6.60
2019-01-12T10:57:54.160Z,6.60
2019-01-12T11:00:26.629Z,6.70
2019-01-12T11:02:58.095Z,6.70
2019-01-12T11:05:27.369Z,6.70
2019-01-12T11:07:56.735Z,6.70
2019-01-12T11:10:26.046Z,6.80
2019-01-12T11:12:55.419Z,6.80
2019-01-12T11:15:24.857Z,6.90
2019-01-12T11:17:54.376Z,6.90
2019-01-12T11:20:23.742Z,7.00
2019-01-12T11:22:53.314Z,7.30
2019-01-12T11:25:22.773Z,7.50
2019-01-12T11:27:52.234Z,7.90
2019-01-12T11:30:21.668Z,8.20
2019-01-12T11:32:51.114Z,8.20
2019-01-12T11:35:20.553Z,7.90
2019-01-12T11:37:49.991Z,7.70
2019-01-12T11:40:21.724Z,7.60
2019-01-12T11:42:52.220Z,7.40
2019-01-12T11:45:22.157Z,7.20
2019-01-12T11:47:51.587Z,7.00
2019-01-12T11:50:20.944Z,7.00
2019-01-12T11:52:50.343Z,7.10
2019-01-12T11:55:20.117Z,7.20
2019-01-12T11:57:49.520Z,7.10
2019-01-12T12:00:26.994Z,7.00
2019-01-12T12:02:56.531Z,7.00
2019-01-12T12:05:25.953Z,7.00
2019-01-12T12:07:57.004Z,7.10
2019-01-12T12:10:26.671Z,7.10
2019-01-12T12:12:57.744Z,7.00
2019-01-12T12:15:27.104Z,7.10
2019-01-12T12:17:56.456Z,7.10
2019-01-12T12:20:26.494Z,7.10
2019-01-12T12:22:58.758Z,7.10
2019-01-12T12:25:28.219Z,7.10
2019-01-12T12:27:57.616Z,7.20
2019-01-12T12:30:28.002Z,7.20
2019-01-12T12:32:57.357Z,7.30
2019-01-12T12:35:26.741Z,7.40
2019-01-12T12:37:56.176Z,7.40
2019-01-12T12:40:26.701Z,7.30
2019-01-12T12:42:56.209Z,7.30
2019-01-12T12:45:30.455Z,7.30
2019-01-12T12:47:59.922Z,7.30
2019-01-12T12:50:29.372Z,7.30
2019-01-12T12:52:58.854Z,7.30
2019-01-12T12:55:28.214Z,7.30
2019-01-12T12:57:58.233Z,7.30
2019-01-12T13:00:29.481Z,7.30
2019-01-12T13:02:58.876Z,7.30
2019-01-12T13:05:28.416Z,7.20
2019-01-12T13:07:57.932Z,7.20
2019-01-12T13:10:28.602Z,7.10
2019-01-12T13:12:58.204Z,7.10
2019-01-12T13:15:27.666Z,7.10
2019-01-12T13:17:57.031Z,7.20
2019-01-12T13:20:26.394Z,7.20
2019-01-12T13:22:55.845Z,7.20
2019-01-12T13:25:25.393Z,7.10
2019-01-12T13:27:54.832Z,7.10
2019-01-12T13:30:25.244Z,7.10
2019-01-12T13:32:54.693Z,7.10
2019-01-12T13:35:24.128Z,7.20
2019-01-12T13:37:53.576Z,7.10
2019-01-12T13:40:24.630Z,7.20
2019-01-12T13:42:53.982Z,7.20
2019-01-12T13:45:23.450Z,7.10
2019-01-12T13:47:52.883Z,7.10
2019-01-12T13:50:23.687Z,7.10
2019-01-12T13:52:53.055Z,7.20
2019-01-12T13:55:22.487Z,7.20
2019-01-12T13:57:51.892Z,7.20
2019-01-12T14:00:24.334Z,7.20
2019-01-12T14:02:53.862Z,7.20
2019-01-12T14:05:23.244Z,7.30
2019-01-12T14:07:56.460Z,7.20
2019-01-12T14:10:24.349Z,7.20
2019-01-12T14:12:53.824Z,7.20
2019-01-12T14:15:23.443Z,7.30
2019-01-12T14:17:52.814Z,7.20
2019-01-12T14:20:24.914Z,7.30
2019-01-12T14:22:54.262Z,7.30
2019-01-12T14:25:23.658Z,7.40
2019-01-12T14:27:54.825Z,7.40
2019-01-12T14:30:24.305Z,7.20
2019-01-12T14:32:53.647Z,7.20
2019-01-12T14:35:23.080Z,7.20
2019-01-12T14:37:52.542Z,7.20
2019-01-12T14:40:22.097Z,7.20
2019-01-12T14:42:51.488Z,7.20
2019-01-12T14:45:23.646Z,7.20
2019-01-12T14:47:53.183Z,7.10
2019-01-12T14:50:22.638Z,7.10
2019-01-12T14:52:52.258Z,7.10
2019-01-12T14:55:22.648Z,7.00
2019-01-12T14:57:51.964Z,6.90
2019-01-12T15:00:23.458Z,6.80
2019-01-12T15:02:52.971Z,6.80
2019-01-12T15:05:24.472Z,6.80
2019-01-12T15:07:53.960Z,6.70
2019-01-12T15:10:23.464Z,6.70
2019-01-12T15:12:52.928Z,6.70
2019-01-12T15:15:22.319Z,6.70
2019-01-12T15:17:51.702Z,6.70
2019-01-12T15:20:23.293Z,6.70
2019-01-12T15:22:52.743Z,6.70
2019-01-12T15:25:22.312Z,6.70
2019-01-12T15:27:51.787Z,6.70
2019-01-12T15:30:23.404Z,6.60
2019-01-12T15:32:52.918Z,6.60
2019-01-12T15:35:23.929Z,6.60
2019-01-12T15:37:53.314Z,6.60
2019-01-12T15:40:23.047Z,6.60
2019-01-12T15:42:52.431Z,6.60
2019-01-12T15:45:23.828Z,6.60
2019-01-12T15:47:53.264Z,6.60
2019-01-12T15:50:26.863Z,6.60
2019-01-12T15:52:56.344Z,6.60
2019-01-12T15:55:25.972Z,6.50
2019-01-12T15:57:55.400Z,6.60
2019-01-12T16:00:26.907Z,6.60
2019-01-12T16:02:56.410Z,6.60
2019-01-12T16:05:28.529Z,6.60
2019-01-12T16:07:57.957Z,6.60
2019-01-12T16:10:27.340Z,6.50
2019-01-12T16:12:56.810Z,6.50
2019-01-12T16:15:26.561Z,6.60
2019-01-12T16:17:56.394Z,6.60
2019-01-12T16:20:28.766Z,6.50
2019-01-12T16:22:58.157Z,6.60
2019-01-12T16:25:27.514Z,6.60
2019-01-12T16:27:57.288Z,6.60
2019-01-12T16:30:26.646Z,6.50
2019-01-12T16:32:55.991Z,6.50
2019-01-12T16:35:25.367Z,6.60
2019-01-12T16:37:54.723Z,6.60
2019-01-12T16:40:26.114Z,6.60
2019-01-12T16:42:55.549Z,6.60
2019-01-12T16:45:24.899Z,6.60
2019-01-12T16:47:54.329Z,6.60
2019-01-12T16:50:23.757Z,6.60
2019-01-12T16:52:53.134Z,6.60
2019-01-12T16:55:22.498Z,6.60
2019-01-12T16:57:51.923Z,6.60
2019-01-12T17:00:23.739Z,6.60
2019-01-12T17:02:53.097Z,6.60
2019-01-12T17:05:22.817Z,6.60
2019-01-12T17:07:52.186Z,6.50
2019-01-12T17:10:22.584Z,6.50
2019-01-12T17:12:52.076Z,6.50
2019-01-12T17:15:22.274Z,6.50
2019-01-12T17:17:51.672Z,6.40
2019-01-12T17:20:23.752Z,6.40
2019-01-12T17:22:55.539Z,6.40
2019-01-12T17:25:24.995Z,6.40
2019-01-12T17:27:54.423Z,6.40
2019-01-12T17:30:25.319Z,6.40
2019-01-12T17:32:56.319Z,6.40
2019-01-12T17:35:25.687Z,6.40
2019-01-12T17:37:55.115Z,6.40
2019-01-12T17:40:24.567Z,6.30
2019-01-12T17:42:53.943Z,6.30
2019-01-12T17:45:24.548Z,6.30
2019-01-12T17:47:54.109Z,6.30
2019-01-12T17:50:24.584Z,6.20
2019-01-12T17:52:54.033Z,6.20
2019-01-12T17:55:24.519Z,6.20
2019-01-12T17:57:53.911Z,6.20
2019-01-12T18:00:26.662Z,6.20
2019-01-12T18:02:56.054Z,6.20
2019-01-12T18:05:25.478Z,6.20
2019-01-12T18:07:54.906Z,6.20
2019-01-12T18:10:25.989Z,6.30
2019-01-12T18:12:55.347Z,6.30
2019-01-12T18:15:24.711Z,6.30
2019-01-12T18:17:54.065Z,6.40
2019-01-12T18:20:23.521Z,6.40
2019-01-12T18:22:52.893Z,6.40
2019-01-12T18:25:22.338Z,6.40
2019-01-12T18:27:51.690Z,6.50
2019-01-12T18:30:23.158Z,6.50
2019-01-12T18:32:52.678Z,6.50
2019-01-12T18:35:22.178Z,6.50
2019-01-12T18:37:51.598Z,6.60
2019-01-12T18:40:21.735Z,6.60
2019-01-12T18:42:51.109Z,6.60
2019-01-12T18:45:21.333Z,6.60
2019-01-12T18:47:50.831Z,6.60
2019-01-12T18:50:25.139Z,6.60
2019-01-12T18:52:54.752Z,6.60
2019-01-12T18:55:24.227Z,6.50
2019-01-12T18:57:53.655Z,6.50
2019-01-12T19:00:24.946Z,6.50
2019-01-12T19:02:54.378Z,6.40
2019-01-12T19:05:24.891Z,6.30
2019-01-12T19:07:55.718Z,6.40
2019-01-12T19:10:25.146Z,6.40
2019-01-12T19:12:54.513Z,6.40
2019-01-12T19:15:25.977Z,6.60
2019-01-12T19:17:55.356Z,6.60
2019-01-12T19:20:24.773Z,6.70
2019-01-12T19:22:54.304Z,6.80
2019-01-12T19:25:24.256Z,6.90
2019-01-12T19:27:53.885Z,6.90
2019-01-12T19:30:23.900Z,7.00
2019-01-12T19:32:53.417Z,7.10
2019-01-12T19:35:22.774Z,7.00
2019-01-12T19:37:52.210Z,7.10
2019-01-12T19:40:22.829Z,7.10
2019-01-12T19:42:52.305Z,7.00
2019-01-12T19:45:21.776Z,7.00
2019-01-12T19:47:52.333Z,6.90
2019-01-12T19:50:23.611Z,6.90
2019-01-12T19:52:53.328Z,7.00
2019-01-12T19:55:22.844Z,6.90
2019-01-12T19:57:52.212Z,7.00
2019-01-12T20:00:24.144Z,7.10
2019-01-12T20:02:53.585Z,7.10
2019-01-12T20:05:22.963Z,7.20
2019-01-12T20:07:53.564Z,7.20
2019-01-12T20:10:23.008Z,7.20
2019-01-12T20:12:53.997Z,7.10
2019-01-12T20:15:24.388Z,7.10
2019-01-12T20:17:53.827Z,7.10
2019-01-12T20:20:23.217Z,7.10
2019-01-12T20:22:52.638Z,7.00
2019-01-12T20:25:24.741Z,7.00
2019-01-12T20:27:54.137Z,7.00
2019-01-12T20:30:44.347Z,7.00
2019-01-12T20:33:37.843Z,7.00
2019-01-12T20:36:23.080Z,7.00
2019-01-12T20:39:08.587Z,7.00
2019-01-12T20:41:46.477Z,7.00
2019-01-12T20:44:30.841Z,7.00
2019-01-12T20:47:15.253Z,6.90
2019-01-12T20:49:47.699Z,6.80
2019-01-12T20:52:36.704Z,6.90
2019-01-12T20:55:20.297Z,6.80
2019-01-12T20:58:16.431Z,6.90
2019-01-12T21:00:54.734Z,6.90
2019-01-12T21:03:27.207Z,6.90
2019-01-12T21:06:14.516Z,6.90
2019-01-12T21:08:58.701Z,6.90
2019-01-12T21:11:31.121Z,6.90
2019-01-12T21:14:12.136Z,6.80
2019-01-12T21:16:41.501Z,6.80
2019-01-12T21:19:10.954Z,6.80
2019-01-12T21:21:40.339Z,6.80
2019-01-12T21:24:10.167Z,6.90
2019-01-12T21:26:40.607Z,7.10
2019-01-12T21:29:10.055Z,7.10
2019-01-12T21:31:39.453Z,7.10
2019-01-12T21:34:10.047Z,7.20
2019-01-12T21:36:39.416Z,7.20
2019-01-12T21:39:08.911Z,7.30
2019-01-12T21:41:38.355Z,7.20
2019-01-12T21:44:07.790Z,7.20
2019-01-12T21:46:37.314Z,7.30
2019-01-12T21:49:06.680Z,7.30
2019-01-12T21:51:36.109Z,7.40
2019-01-12T21:54:05.558Z,7.40
2019-01-12T21:56:34.971Z,7.40
2019-01-12T21:59:04.508Z,7.40
2019-01-12T22:01:36.337Z,7.50
2019-01-12T22:04:05.124Z,7.60
2019-01-12T22:06:34.604Z,7.60
2019-01-12T22:09:06.906Z,7.50
2019-01-12T22:11:37.952Z,7.40
2019-01-12T22:14:07.432Z,7.40
2019-01-12T22:16:36.801Z,7.40
2019-01-12T22:19:06.392Z,7.40
2019-01-12T22:21:35.777Z,7.50
2019-01-12T22:24:05.216Z,7.40
2019-01-12T22:26:34.640Z,7.40
2019-01-12T22:29:04.228Z,7.40
2019-01-12T22:31:33.608Z,7.50
2019-01-12T22:34:03.030Z,7.60
2019-01-12T22:36:32.466Z,7.60
2019-01-12T22:39:01.881Z,7.60
2019-01-12T22:41:31.196Z,7.70
2019-01-12T22:44:00.707Z,7.70
2019-01-12T22:46:30.061Z,7.70
2019-01-12T22:48:59.447Z,7.70
2019-01-12T22:51:28.808Z,7.70
2019-01-12T22:53:58.187Z,7.70
2019-01-12T22:56:28.991Z,7.70
2019-01-12T22:59:00.207Z,7.70
2019-01-12T23:01:32.725Z,7.80
2019-01-12T23:04:02.096Z,7.70
2019-01-12T23:06:31.458Z,7.70
2019-01-12T23:09:00.871Z,7.70
2019-01-12T23:11:30.243Z,7.80
2019-01-12T23:13:59.631Z,7.80
2019-01-12T23:16:28.998Z,7.80
2019-01-12T23:18:58.361Z,7.70
2019-01-12T23:21:28.196Z,7.70
2019-01-12T23:23:57.561Z,7.70
2019-01-12T23:26:26.919Z,7.70
2019-01-12T23:28:56.288Z,7.80
2019-01-12T23:31:25.585Z,7.80
2019-01-12T23:33:55.032Z,7.70
2019-01-12T23:36:24.460Z,7.70
2019-01-12T23:38:53.828Z,7.60
2019-01-12T23:41:23.345Z,7.50
2019-01-12T23:43:52.775Z,7.50
2019-01-12T23:46:22.203Z,7.50
2019-01-12T23:48:51.679Z,7.50
2019-01-12T23:51:21.125Z,7.50
2019-01-12T23:53:50.491Z,7.60
2019-01-12T23:56:19.907Z,7.70
2019-01-12T23:58:49.259Z,7.50
